createdAt,value
2022-12-29T00:01:54.592Z,3.57
2022-12-29T00:04:58.331Z,3.53
2022-12-29T00:08:01.565Z,3.46
2022-12-29T00:11:05.297Z,3.42
2022-12-29T00:14:29.434Z,3.38
2022-12-29T00:17:33.022Z,3.37
2022-12-29T00:20:56.040Z,3.37
2022-12-29T00:24:28.550Z,3.38
2022-12-29T00:27:51.318Z,3.37
2022-12-29T00:31:14.021Z,3.32
2022-12-29T00:34:35.777Z,3.33
2022-12-29T00:38:00.885Z,3.37
2022-12-29T00:41:23.015Z,3.34
2022-12-29T00:44:26.914Z,3.41
2022-12-29T00:47:30.443Z,3.42
2022-12-29T00:50:34.342Z,3.46
2022-12-29T00:53:37.533Z,3.45
2022-12-29T00:56:41.363Z,3.54
2022-12-29T00:59:44.854Z,3.63
2022-12-29T01:02:48.670Z,3.67
2022-12-29T01:05:53.510Z,3.69
2022-12-29T01:09:16.002Z,3.70
2022-12-29T01:12:39.639Z,3.70
2022-12-29T01:15:51.562Z,3.69
2022-12-29T01:18:54.930Z,3.66
2022-12-29T01:21:58.606Z,3.59
2022-12-29T01:25:01.817Z,3.58
2022-12-29T01:28:05.426Z,3.57
2022-12-29T01:31:14.357Z,3.62
2022-12-29T01:34:18.544Z,3.54
2022-12-29T01:37:21.958Z,3.55
2022-12-29T01:40:26.463Z,3.52
2022-12-29T01:43:48.915Z,3.55
2022-12-29T01:46:53.429Z,3.51
2022-12-29T01:50:00.353Z,3.45
2022-12-29T01:53:11.167Z,3.46
2022-12-29T01:56:18.041Z,3.44
2022-12-29T01:59:26.354Z,3.50
2022-12-29T02:02:33.154Z,3.49
2022-12-29T02:05:52.104Z,3.51
2022-12-29T02:08:57.701Z,3.55
2022-12-29T02:12:02.431Z,3.63
2022-12-29T02:15:06.731Z,3.63
2022-12-29T02:18:34.943Z,3.61
2022-12-29T02:22:10.086Z,3.65
2022-12-29T02:25:53.204Z,3.70
2022-12-29T02:29:21.304Z,3.67
2022-12-29T02:32:45.519Z,3.72
2022-12-29T02:36:16.173Z,3.70
2022-12-29T02:39:28.452Z,3.72
2022-12-29T02:42:56.038Z,3.72
2022-12-29T02:46:30.563Z,3.72
2022-12-29T02:49:49.919Z,3.76
2022-12-29T02:53:01.579Z,3.76
2022-12-29T02:56:05.370Z,3.85
2022-12-29T02:59:09.810Z,3.90
2022-12-29T03:02:46.123Z,3.89
2022-12-29T03:06:32.288Z,3.94
2022-12-29T03:10:01.531Z,3.95
2022-12-29T03:13:36.681Z,3.96
2022-12-29T03:16:57.259Z,4.00
2022-12-29T03:20:07.544Z,4.08
2022-12-29T03:23:13.128Z,4.19
2022-12-29T03:26:20.215Z,4.29
2022-12-29T03:29:25.110Z,4.41
2022-12-29T03:33:01.417Z,4.38
2022-12-29T03:36:12.110Z,4.36
2022-12-29T03:39:15.612Z,4.36
2022-12-29T03:42:25.139Z,4.32
2022-12-29T03:45:28.486Z,4.29
2022-12-29T03:49:35.541Z,4.29
2022-12-29T03:52:40.198Z,4.30
2022-12-29T03:55:43.477Z,4.35
2022-12-29T03:58:46.978Z,4.33
2022-12-29T04:01:50.666Z,4.31
2022-12-29T04:04:54.131Z,4.23
2022-12-29T04:07:57.118Z,4.18
2022-12-29T04:11:00.508Z,4.15
2022-12-29T04:14:03.526Z,4.15
2022-12-29T04:17:07.420Z,4.14
2022-12-29T04:20:46.381Z,4.05
2022-12-29T04:23:50.027Z,4.05
2022-12-29T04:26:53.319Z,4.11
2022-12-29T04:29:57.451Z,4.08
2022-12-29T04:33:00.676Z,4.05
2022-12-29T04:36:04.900Z,4.02
2022-12-29T04:39:08.631Z,3.98
2022-12-29T04:42:12.222Z,3.86
2022-12-29T04:45:16.039Z,3.81
2022-12-29T04:48:19.534Z,3.71
2022-12-29T04:51:22.547Z,3.59
2022-12-29T04:54:26.308Z,3.54
2022-12-29T04:57:31.056Z,3.45
2022-12-29T05:00:35.574Z,3.37
2022-12-29T05:03:38.734Z,3.33
2022-12-29T05:06:42.148Z,3.30
2022-12-29T05:09:45.552Z,3.30
2022-12-29T05:12:49.313Z,3.29
2022-12-29T05:15:54.228Z,3.28
2022-12-29T05:18:58.236Z,3.22
2022-12-29T05:22:01.527Z,3.21
2022-12-29T05:25:06.296Z,3.23
2022-12-29T05:28:10.299Z,3.21
2022-12-29T05:31:14.436Z,3.19
2022-12-29T05:34:17.619Z,3.18
2022-12-29T05:37:22.001Z,3.18
2022-12-29T05:40:25.387Z,3.16
2022-12-29T05:43:30.683Z,3.17
2022-12-29T05:46:35.014Z,3.15
2022-12-29T05:49:38.754Z,3.14
2022-12-29T05:52:41.995Z,3.17
2022-12-29T05:55:48.727Z,3.14
2022-12-29T05:58:52.397Z,3.10
2022-12-29T06:01:55.752Z,3.08
2022-12-29T06:04:59.266Z,3.00
2022-12-29T06:08:02.447Z,2.99
2022-12-29T06:11:06.944Z,2.95
2022-12-29T06:14:10.543Z,2.88
2022-12-29T06:17:14.280Z,2.87
2022-12-29T06:20:17.424Z,2.89
2022-12-29T06:23:21.048Z,2.87
2022-12-29T06:26:24.361Z,2.82
2022-12-29T06:29:27.817Z,2.88
2022-12-29T06:32:31.947Z,2.86
2022-12-29T06:35:36.918Z,2.88
2022-12-29T06:38:40.491Z,2.89
2022-12-29T06:41:44.286Z,2.86
2022-12-29T06:44:48.029Z,2.80
2022-12-29T06:47:51.397Z,2.71
2022-12-29T06:50:54.559Z,2.72
2022-12-29T06:53:58.277Z,2.73
2022-12-29T06:57:01.484Z,2.75
2022-12-29T07:00:06.364Z,2.78
2022-12-29T07:03:10.251Z,2.80
2022-12-29T07:06:14.474Z,2.89
2022-12-29T07:09:17.697Z,2.96
2022-12-29T07:12:21.000Z,3.01
2022-12-29T07:15:24.281Z,3.08
2022-12-29T07:18:27.603Z,3.16
2022-12-29T07:21:30.694Z,3.17
2022-12-29T07:24:34.261Z,3.32
2022-12-29T07:27:37.249Z,3.46
2022-12-29T07:30:40.835Z,3.55
2022-12-29T07:33:44.745Z,3.59
2022-12-29T07:36:48.212Z,3.67
2022-12-29T07:39:51.028Z,3.75
2022-12-29T07:42:54.286Z,3.99
2022-12-29T07:46:02.363Z,3.96
2022-12-29T07:49:05.645Z,3.90
2022-12-29T07:52:08.617Z,3.96
2022-12-29T07:55:12.051Z,3.96
2022-12-29T07:58:15.500Z,3.99
2022-12-29T08:01:19.334Z,4.01
2022-12-29T08:04:22.920Z,4.12
2022-12-29T08:07:27.071Z,4.24
2022-12-29T08:10:30.441Z,4.45
2022-12-29T08:13:33.975Z,4.58
2022-12-29T08:16:37.527Z,4.70
2022-12-29T08:19:40.450Z,4.73
2022-12-29T08:22:43.681Z,4.90
2022-12-29T08:33:22.445Z,5.32
2022-12-29T08:36:25.513Z,5.77
2022-12-29T08:39:28.925Z,6.07
2022-12-29T08:42:33.334Z,6.40
2022-12-29T08:45:36.604Z,6.53
2022-12-29T08:48:40.062Z,6.95
2022-12-29T08:51:43.360Z,7.30
2022-12-29T08:54:46.684Z,7.78
2022-12-29T08:57:50.512Z,8.20
2022-12-29T09:00:58.522Z,8.56
2022-12-29T09:04:15.057Z,8.80
2022-12-29T09:07:19.843Z,9.00
2022-12-29T09:10:23.014Z,9.21
2022-12-29T09:13:26.325Z,9.35
2022-12-29T09:16:29.665Z,9.71
2022-12-29T09:19:33.318Z,9.86
2022-12-29T09:22:37.736Z,8.87
2022-12-29T09:25:41.092Z,9.76
2022-12-29T09:28:45.640Z,10.09
2022-12-29T09:31:49.187Z,10.63
2022-12-29T09:34:52.312Z,10.76
2022-12-29T09:37:55.809Z,10.85
2022-12-29T09:41:12.135Z,11.48
2022-12-29T09:44:15.509Z,11.64
2022-12-29T09:47:21.871Z,11.60
2022-12-29T09:50:31.228Z,11.07
2022-12-29T09:53:45.917Z,11.38
2022-12-29T09:56:51.138Z,11.34
2022-12-29T10:00:06.158Z,11.72
2022-12-29T10:03:17.011Z,11.11
2022-12-29T10:06:28.405Z,10.95
2022-12-29T10:09:43.841Z,11.08
2022-12-29T10:13:23.120Z,11.64
2022-12-29T10:16:39.737Z,12.46
2022-12-29T10:20:13.619Z,11.88
2022-12-29T10:23:29.989Z,11.84
2022-12-29T10:26:40.925Z,11.74
2022-12-29T10:29:54.613Z,12.46
2022-12-29T10:33:05.808Z,12.17
2022-12-29T10:36:22.894Z,12.22
2022-12-29T10:39:38.369Z,12.62
2022-12-29T10:42:46.564Z,12.07
2022-12-29T10:45:50.390Z,11.91
2022-12-29T10:48:54.317Z,12.04
2022-12-29T10:52:01.634Z,12.15
2022-12-29T10:55:07.218Z,11.67
2022-12-29T10:58:14.827Z,12.30
2022-12-29T11:01:19.720Z,12.87
2022-12-29T11:05:00.599Z,11.91
2022-12-29T11:08:10.057Z,12.68
2022-12-29T11:11:13.557Z,12.57
2022-12-29T11:14:22.582Z,12.85
2022-12-29T11:17:25.762Z,12.39
2022-12-29T11:20:36.124Z,12.51
2022-12-29T11:23:43.214Z,12.45
2022-12-29T11:26:46.411Z,12.28
2022-12-29T11:29:54.901Z,11.11
2022-12-29T11:32:59.499Z,12.40
2022-12-29T11:36:16.667Z,13.02
2022-12-29T11:39:40.746Z,12.22
2022-12-29T11:42:57.430Z,12.25
2022-12-29T11:46:04.985Z,10.74
2022-12-29T11:49:20.275Z,11.79
2022-12-29T11:52:26.185Z,12.22
2022-12-29T11:55:30.896Z,11.60
2022-12-29T11:58:37.829Z,12.89
2022-12-29T12:01:43.081Z,12.86
2022-12-29T12:04:46.945Z,12.95
2022-12-29T12:08:03.381Z,13.41
2022-12-29T12:11:29.764Z,12.61
2022-12-29T12:14:48.009Z,12.61
2022-12-29T12:18:01.694Z,13.22
2022-12-29T12:21:16.700Z,13.41
2022-12-29T12:24:37.647Z,13.48
2022-12-29T12:27:50.476Z,13.13
2022-12-29T12:30:59.224Z,13.44
2022-12-29T12:34:07.606Z,13.27
2022-12-29T12:37:49.584Z,12.54
2022-12-29T12:41:21.359Z,12.99
2022-12-29T12:44:39.429Z,12.74
2022-12-29T12:48:02.527Z,11.90
2022-12-29T12:51:28.625Z,11.96
2022-12-29T12:54:52.496Z,13.08
2022-12-29T12:58:09.409Z,13.50
2022-12-29T13:01:15.807Z,13.35
2022-12-29T13:04:48.051Z,12.93
2022-12-29T13:08:04.126Z,12.22
2022-12-29T13:11:15.781Z,11.90
2022-12-29T13:14:40.529Z,12.49
2022-12-29T13:18:01.824Z,12.26
2022-12-29T13:21:18.838Z,11.97
2022-12-29T13:24:25.327Z,11.74
2022-12-29T13:27:55.075Z,10.73
2022-12-29T13:31:35.923Z,10.86
2022-12-29T13:34:45.407Z,11.01
2022-12-29T13:37:55.831Z,11.56
2022-12-29T13:41:05.089Z,11.18
2022-12-29T13:44:16.275Z,10.47
2022-12-29T13:47:39.531Z,9.86
2022-12-29T13:50:46.710Z,8.90
2022-12-29T13:53:58.538Z,8.35
2022-12-29T13:57:25.809Z,8.02
2022-12-29T14:00:39.567Z,7.49
2022-12-29T14:03:50.689Z,7.47
2022-12-29T14:07:14.584Z,7.35
2022-12-29T14:10:37.673Z,7.12
2022-12-29T14:13:44.237Z,7.06
2022-12-29T14:16:47.530Z,6.89
2022-12-29T14:19:55.294Z,6.85
2022-12-29T14:23:21.540Z,6.78
2022-12-29T14:26:44.566Z,6.70
2022-12-29T14:29:52.112Z,6.54
2022-12-29T14:33:15.782Z,6.42
2022-12-29T14:36:22.179Z,6.35
2022-12-29T14:39:36.273Z,6.29
2022-12-29T14:42:41.602Z,6.18
2022-12-29T14:45:49.822Z,6.08
2022-12-29T14:49:00.052Z,5.95
2022-12-29T14:52:18.902Z,5.81
2022-12-29T14:55:53.516Z,5.68
2022-12-29T14:58:58.803Z,5.56
2022-12-29T15:02:14.059Z,5.42
2022-12-29T15:05:54.326Z,5.27
2022-12-29T15:09:07.663Z,5.01
2022-12-29T15:12:42.780Z,4.87
2022-12-29T15:15:46.875Z,4.77
2022-12-29T15:18:50.094Z,4.68
2022-12-29T15:21:55.737Z,4.53
2022-12-29T15:24:59.459Z,4.44
2022-12-29T15:28:05.701Z,4.37
2022-12-29T15:31:17.515Z,4.33
2022-12-29T15:34:22.576Z,4.21
2022-12-29T15:37:34.852Z,4.21
2022-12-29T15:40:38.176Z,4.16
2022-12-29T15:44:16.344Z,4.06
2022-12-29T15:47:24.465Z,4.04
2022-12-29T15:50:32.591Z,3.99
2022-12-29T15:53:35.813Z,3.99
2022-12-29T15:56:38.692Z,4.02
2022-12-29T15:59:48.377Z,4.03
2022-12-29T16:02:51.438Z,4.03
2022-12-29T16:05:57.614Z,4.10
2022-12-29T16:09:04.269Z,4.04
2022-12-29T16:12:17.930Z,3.97
2022-12-29T16:15:21.236Z,3.84
2022-12-29T16:18:38.716Z,3.44
2022-12-29T16:21:43.296Z,3.46
2022-12-29T16:24:47.070Z,3.53
2022-12-29T16:27:50.628Z,3.59
2022-12-29T16:31:08.247Z,3.68
2022-12-29T16:34:25.584Z,3.66
2022-12-29T16:37:30.743Z,3.59
2022-12-29T16:40:34.135Z,3.50
2022-12-29T16:43:43.138Z,3.62
2022-12-29T16:47:12.372Z,3.65
2022-12-29T16:50:28.279Z,3.49
2022-12-29T16:53:48.522Z,3.50
2022-12-29T16:56:53.286Z,3.47
2022-12-29T17:00:02.464Z,3.29
2022-12-29T17:03:09.025Z,3.40
2022-12-29T17:06:20.998Z,3.07
2022-12-29T17:09:31.633Z,3.03
2022-12-29T17:12:38.615Z,3.09
2022-12-29T17:15:45.019Z,2.81
2022-12-29T17:18:50.550Z,2.84
2022-12-29T17:21:54.900Z,2.97
2022-12-29T17:25:00.838Z,3.05
2022-12-29T17:28:23.915Z,2.74
2022-12-29T17:31:26.937Z,2.56
2022-12-29T17:34:31.191Z,2.45
2022-12-29T17:37:37.274Z,2.79
2022-12-29T17:40:40.574Z,2.58
2022-12-29T17:43:43.771Z,2.64
2022-12-29T17:46:49.296Z,2.87
2022-12-29T17:49:52.283Z,2.84
2022-12-29T17:53:01.192Z,2.90
2022-12-29T17:56:04.392Z,2.95
2022-12-29T17:59:14.361Z,3.11
2022-12-29T18:02:26.916Z,3.15
2022-12-29T18:05:31.758Z,3.06
2022-12-29T18:08:39.191Z,3.07
2022-12-29T18:11:44.152Z,3.01
2022-12-29T18:14:47.041Z,3.02
2022-12-29T18:17:55.198Z,2.99
2022-12-29T18:21:00.781Z,2.92
2022-12-29T18:24:04.285Z,2.91
2022-12-29T18:27:17.977Z,2.81
2022-12-29T18:30:21.561Z,2.84
2022-12-29T18:33:26.668Z,2.84
2022-12-29T18:36:30.603Z,2.78
2022-12-29T18:39:34.208Z,2.58
2022-12-29T18:42:37.692Z,2.46
2022-12-29T18:45:40.840Z,2.39
2022-12-29T18:48:44.345Z,2.55
2022-12-29T18:51:48.204Z,2.47
2022-12-29T18:54:51.377Z,2.36
2022-12-29T18:57:54.679Z,2.26
2022-12-29T19:00:58.000Z,2.08
2022-12-29T19:04:01.107Z,2.20
2022-12-29T19:07:04.779Z,2.31
2022-12-29T19:10:08.173Z,2.26
2022-12-29T19:13:20.908Z,2.04
2022-12-29T19:16:25.413Z,2.02
2022-12-29T19:19:29.190Z,1.85
2022-12-29T19:22:32.149Z,1.78
2022-12-29T19:25:35.853Z,1.80
2022-12-29T19:28:38.871Z,1.73
2022-12-29T19:31:42.808Z,1.65
2022-12-29T19:34:48.992Z,1.64
2022-12-29T19:37:52.908Z,1.70
2022-12-29T19:40:55.871Z,1.69
2022-12-29T19:43:59.345Z,1.72
2022-12-29T19:47:02.349Z,1.70
2022-12-29T19:50:07.152Z,1.69
2022-12-29T19:53:11.138Z,1.66
2022-12-29T19:56:17.222Z,1.55
2022-12-29T19:59:20.319Z,1.58
2022-12-29T20:02:26.959Z,1.65
2022-12-29T20:05:30.707Z,1.55
2022-12-29T20:08:35.356Z,1.44
2022-12-29T20:11:38.817Z,1.53
2022-12-29T20:14:43.271Z,1.41
2022-12-29T20:18:12.403Z,1.14
2022-12-29T20:21:15.012Z,1.22
2022-12-29T20:24:18.649Z,1.16
2022-12-29T20:27:21.545Z,1.17
2022-12-29T20:30:25.312Z,1.21
2022-12-29T20:33:29.761Z,1.22
2022-12-29T20:36:35.901Z,1.10
2022-12-29T20:39:40.766Z,1.13
2022-12-29T20:42:44.006Z,1.06
2022-12-29T20:45:47.167Z,0.97
2022-12-29T20:48:51.167Z,1.14
2022-12-29T20:52:09.893Z,1.29
2022-12-29T20:55:13.188Z,1.21
2022-12-29T20:58:24.395Z,1.09
2022-12-29T21:01:28.367Z,1.00
2022-12-29T21:04:50.253Z,0.99
2022-12-29T21:07:55.503Z,1.03
2022-12-29T21:10:59.032Z,0.87
2022-12-29T21:14:04.019Z,0.90
2022-12-29T21:17:07.347Z,0.88
2022-12-29T21:20:20.351Z,0.88
2022-12-29T21:23:23.375Z,0.94
2022-12-29T21:26:26.514Z,1.00
2022-12-29T21:29:29.625Z,0.94
2022-12-29T21:32:32.953Z,0.67
2022-12-29T21:35:39.156Z,0.96
2022-12-29T21:38:42.769Z,0.78
2022-12-29T21:41:45.957Z,0.61
2022-12-29T21:45:07.806Z,0.61
2022-12-29T21:48:24.387Z,0.57
2022-12-29T21:51:46.458Z,0.66
2022-12-29T21:55:01.010Z,0.84
2022-12-29T21:58:24.474Z,0.86
2022-12-29T22:01:48.248Z,0.83
2022-12-29T22:05:10.215Z,0.89
2022-12-29T22:08:31.905Z,0.69
2022-12-29T22:11:53.631Z,0.50
2022-12-29T22:14:56.609Z,0.55
2022-12-29T22:18:01.408Z,0.71
2022-12-29T22:21:06.617Z,0.85
2022-12-29T22:24:10.317Z,0.83
2022-12-29T22:27:13.455Z,0.89
2022-12-29T22:30:17.578Z,0.72
2022-12-29T22:33:20.493Z,0.70
2022-12-29T22:36:24.837Z,0.45
2022-12-29T22:39:27.696Z,0.60
2022-12-29T22:42:30.991Z,0.58
2022-12-29T22:45:34.050Z,0.83
2022-12-29T22:48:37.720Z,0.82
2022-12-29T22:51:40.571Z,0.90
2022-12-29T22:54:43.838Z,0.84
2022-12-29T22:57:46.720Z,0.86
2022-12-29T23:00:49.777Z,0.73
2022-12-29T23:03:52.769Z,0.75
2022-12-29T23:06:55.928Z,0.64
2022-12-29T23:09:58.853Z,0.46
2022-12-29T23:13:04.477Z,0.55
2022-12-29T23:16:07.474Z,0.83
2022-12-29T23:19:11.992Z,0.74
2022-12-29T23:22:15.143Z,0.49
2022-12-29T23:25:18.177Z,0.50
2022-12-29T23:28:20.968Z,0.65
2022-12-29T23:31:25.545Z,1.00
2022-12-29T23:34:28.316Z,1.03
2022-12-29T23:37:32.063Z,1.01
2022-12-29T23:40:35.099Z,1.23
2022-12-29T23:43:38.698Z,1.23
2022-12-29T23:46:41.633Z,1.02
2022-12-29T23:49:44.606Z,1.08
2022-12-29T23:52:47.769Z,1.12
2022-12-29T23:55:55.095Z,1.12
2022-12-29T23:58:58.054Z,1.26
